sensor_id;sensor_type;location;lat;lon;timestamp;P1;durP1;ratioP1;P2;durP2;ratioP2
69594;SDS011;56800;52.142;5.364;2023-02-28T00:01:25;8.40;;;4.10;;
69594;SDS011;56800;52.142;5.364;2023-02-28T00:03:53;7.72;;;3.97;;
69594;SDS011;56800;52.142;5.364;2023-02-28T00:06:20;10.00;;;4.47;;
69594;SDS011;56800;52.142;5.364;2023-02-28T00:08:47;9.32;;;4.03;;
69594;SDS011;56800;52.142;5.364;2023-02-28T00:11:14;8.35;;;3.60;;
69594;SDS011;56800;52.142;5.364;2023-02-28T00:13:44;9.30;;;4.05;;
69594;SDS011;56800;52.142;5.364;2023-02-28T00:16:17;11.45;;;4.47;;
69594;SDS011;56800;52.142;5.364;2023-02-28T00:18:45;11.30;;;3.90;;
69594;SDS011;56800;52.142;5.364;2023-02-28T00:21:14;8.35;;;4.03;;
69594;SDS011;56800;52.142;5.364;2023-02-28T00:23:42;9.00;;;3.72;;
69594;SDS011;56800;52.142;5.364;2023-02-28T00:26:09;8.10;;;3.40;;
69594;SDS011;56800;52.142;5.364;2023-02-28T00:28:37;6.20;;;2.88;;
69594;SDS011;56800;52.142;5.364;2023-02-28T00:31:03;7.37;;;2.90;;
69594;SDS011;56800;52.142;5.364;2023-02-28T00:33:31;8.05;;;3.05;;
69594;SDS011;56800;52.142;5.364;2023-02-28T00:36:08;10.50;;;2.75;;
69594;SDS011;56800;52.142;5.364;2023-02-28T00:38:37;7.13;;;2.85;;
69594;SDS011;56800;52.142;5.364;2023-02-28T00:41:05;6.38;;;2.83;;
69594;SDS011;56800;52.142;5.364;2023-02-28T00:43:33;8.27;;;2.60;;
69594;SDS011;56800;52.142;5.364;2023-02-28T00:46:00;8.15;;;2.70;;
69594;SDS011;56800;52.142;5.364;2023-02-28T00:48:28;7.00;;;2.60;;
69594;SDS011;56800;52.142;5.364;2023-02-28T00:50:54;6.57;;;2.80;;
69594;SDS011;56800;52.142;5.364;2023-02-28T00:53:21;7.15;;;2.90;;
69594;SDS011;56800;52.142;5.364;2023-02-28T00:55:48;5.80;;;2.63;;
69594;SDS011;56800;52.142;5.364;2023-02-28T00:58:16;6.85;;;3.30;;
69594;SDS011;56800;52.142;5.364;2023-02-28T01:00:42;7.05;;;3.10;;
69594;SDS011;56800;52.142;5.364;2023-02-28T01:03:09;7.78;;;2.60;;
69594;SDS011;56800;52.142;5.364;2023-02-28T01:05:36;8.23;;;3.10;;
69594;SDS011;56800;52.142;5.364;2023-02-28T01:08:02;6.70;;;2.60;;
69594;SDS011;56800;52.142;5.364;2023-02-28T01:10:29;6.22;;;2.63;;
69594;SDS011;56800;52.142;5.364;2023-02-28T01:12:57;7.15;;;2.45;;
69594;SDS011;56800;52.142;5.364;2023-02-28T01:15:24;7.20;;;3.13;;
69594;SDS011;56800;52.142;5.364;2023-02-28T01:17:51;7.15;;;2.90;;
69594;SDS011;56800;52.142;5.364;2023-02-28T01:20:17;8.93;;;2.90;;
69594;SDS011;56800;52.142;5.364;2023-02-28T01:22:44;5.68;;;2.70;;
69594;SDS011;56800;52.142;5.364;2023-02-28T01:25:11;8.25;;;3.25;;
69594;SDS011;56800;52.142;5.364;2023-02-28T01:27:38;7.93;;;3.00;;
69594;SDS011;56800;52.142;5.364;2023-02-28T01:30:06;5.97;;;2.67;;
69594;SDS011;56800;52.142;5.364;2023-02-28T01:32:34;5.47;;;2.70;;
69594;SDS011;56800;52.142;5.364;2023-02-28T01:35:01;6.88;;;2.63;;
69594;SDS011;56800;52.142;5.364;2023-02-28T01:37:28;6.13;;;2.40;;
69594;SDS011;56800;52.142;5.364;2023-02-28T01:39:55;4.47;;;2.70;;
69594;SDS011;56800;52.142;5.364;2023-02-28T01:42:21;4.55;;;2.55;;
69594;SDS011;56800;52.142;5.364;2023-02-28T01:47:27;7.85;;;2.90;;
69594;SDS011;56800;52.142;5.364;2023-02-28T01:49:57;6.07;;;2.80;;
69594;SDS011;56800;52.142;5.364;2023-02-28T01:52:26;7.13;;;2.83;;
69594;SDS011;56800;52.142;5.364;2023-02-28T01:54:55;6.82;;;2.70;;
69594;SDS011;56800;52.142;5.364;2023-02-28T01:57:29;9.90;;;2.60;;
69594;SDS011;56800;52.142;5.364;2023-02-28T02:00:05;5.97;;;2.72;;
69594;SDS011;56800;52.142;5.364;2023-02-28T02:02:39;6.72;;;3.20;;
69594;SDS011;56800;52.142;5.364;2023-02-28T02:05:10;5.75;;;3.03;;
69594;SDS011;56800;52.142;5.364;2023-02-28T02:07:41;8.73;;;3.20;;
69594;SDS011;56800;52.142;5.364;2023-02-28T02:10:15;8.57;;;3.20;;
69594;SDS011;56800;52.142;5.364;2023-02-28T02:12:56;6.28;;;2.92;;
69594;SDS011;56800;52.142;5.364;2023-02-28T02:18:39;5.15;;;2.50;;
69594;SDS011;56800;52.142;5.364;2023-02-28T02:26:53;7.93;;;3.33;;
69594;SDS011;56800;52.142;5.364;2023-02-28T02:29:33;9.43;;;3.10;;
69594;SDS011;56800;52.142;5.364;2023-02-28T02:37:56;7.20;;;3.20;;
69594;SDS011;56800;52.142;5.364;2023-02-28T02:40:26;7.15;;;3.17;;
69594;SDS011;56800;52.142;5.364;2023-02-28T02:43:22;8.85;;;3.10;;
69594;SDS011;56800;52.142;5.364;2023-02-28T02:46:11;7.85;;;3.00;;
69594;SDS011;56800;52.142;5.364;2023-02-28T02:48:41;10.48;;;3.40;;
69594;SDS011;56800;52.142;5.364;2023-02-28T02:51:11;9.97;;;3.73;;
69594;SDS011;56800;52.142;5.364;2023-02-28T02:53:44;9.38;;;3.25;;
69594;SDS011;56800;52.142;5.364;2023-02-28T02:56:16;8.90;;;3.15;;
69594;SDS011;56800;52.142;5.364;2023-02-28T02:58:47;8.43;;;3.10;;
69594;SDS011;56800;52.142;5.364;2023-02-28T03:01:20;12.07;;;3.50;;
69594;SDS011;56800;52.142;5.364;2023-02-28T03:03:55;9.23;;;3.33;;
69594;SDS011;56800;52.142;5.364;2023-02-28T03:06:24;8.55;;;3.05;;
69594;SDS011;56800;52.142;5.364;2023-02-28T03:08:52;8.95;;;3.42;;
69594;SDS011;56800;52.142;5.364;2023-02-28T03:11:19;8.57;;;3.17;;
69594;SDS011;56800;52.142;5.364;2023-02-28T03:16:59;11.23;;;3.37;;
69594;SDS011;56800;52.142;5.364;2023-02-28T03:19:38;9.38;;;3.25;;
69594;SDS011;56800;52.142;5.364;2023-02-28T03:22:14;10.23;;;3.20;;
69594;SDS011;56800;52.142;5.364;2023-02-28T03:25:01;7.25;;;3.00;;
69594;SDS011;56800;52.142;5.364;2023-02-28T03:27:29;6.57;;;3.10;;
69594;SDS011;56800;52.142;5.364;2023-02-28T03:30:05;7.63;;;3.23;;
69594;SDS011;56800;52.142;5.364;2023-02-28T03:32:58;6.72;;;2.80;;
69594;SDS011;56800;52.142;5.364;2023-02-28T03:35:33;7.30;;;2.83;;
69594;SDS011;56800;52.142;5.364;2023-02-28T03:38:05;7.72;;;2.72;;
69594;SDS011;56800;52.142;5.364;2023-02-28T03:41:01;7.07;;;3.05;;
69594;SDS011;56800;52.142;5.364;2023-02-28T03:43:34;9.67;;;2.93;;
69594;SDS011;56800;52.142;5.364;2023-02-28T03:46:06;10.93;;;3.55;;
69594;SDS011;56800;52.142;5.364;2023-02-28T03:48:40;10.40;;;3.50;;
69594;SDS011;56800;52.142;5.364;2023-02-28T03:51:16;10.25;;;3.00;;
69594;SDS011;56800;52.142;5.364;2023-02-28T03:53:47;9.13;;;3.08;;
69594;SDS011;56800;52.142;5.364;2023-02-28T03:56:19;9.33;;;2.83;;
69594;SDS011;56800;52.142;5.364;2023-02-28T03:59:07;6.13;;;2.97;;
69594;SDS011;56800;52.142;5.364;2023-02-28T04:01:47;11.30;;;3.10;;
69594;SDS011;56800;52.142;5.364;2023-02-28T04:04:15;8.52;;;3.53;;
69594;SDS011;56800;52.142;5.364;2023-02-28T04:06:42;8.55;;;3.50;;
69594;SDS011;56800;52.142;5.364;2023-02-28T04:09:11;7.77;;;3.33;;
69594;SDS011;56800;52.142;5.364;2023-02-28T04:14:08;7.22;;;3.10;;
69594;SDS011;56800;52.142;5.364;2023-02-28T04:16:36;8.70;;;3.60;;
69594;SDS011;56800;52.142;5.364;2023-02-28T04:19:06;9.25;;;3.88;;
69594;SDS011;56800;52.142;5.364;2023-02-28T04:21:35;6.87;;;3.17;;
69594;SDS011;56800;52.142;5.364;2023-02-28T04:24:05;6.65;;;2.75;;
69594;SDS011;56800;52.142;5.364;2023-02-28T04:26:34;9.05;;;3.45;;
69594;SDS011;56800;52.142;5.364;2023-02-28T04:29:03;6.65;;;3.08;;
69594;SDS011;56800;52.142;5.364;2023-02-28T04:31:31;5.70;;;2.70;;
69594;SDS011;56800;52.142;5.364;2023-02-28T04:33:58;5.13;;;2.40;;
69594;SDS011;56800;52.142;5.364;2023-02-28T04:36:26;5.80;;;2.63;;
69594;SDS011;56800;52.142;5.364;2023-02-28T04:38:53;5.95;;;2.60;;
69594;SDS011;56800;52.142;5.364;2023-02-28T04:41:20;9.25;;;2.67;;
69594;SDS011;56800;52.142;5.364;2023-02-28T04:43:48;4.68;;;2.47;;
69594;SDS011;56800;52.142;5.364;2023-02-28T04:46:16;6.60;;;2.30;;
69594;SDS011;56800;52.142;5.364;2023-02-28T04:48:44;5.00;;;2.75;;
69594;SDS011;56800;52.142;5.364;2023-02-28T04:51:13;5.00;;;2.35;;
69594;SDS011;56800;52.142;5.364;2023-02-28T04:53:41;7.47;;;2.60;;
69594;SDS011;56800;52.142;5.364;2023-02-28T04:56:10;6.75;;;2.20;;
69594;SDS011;56800;52.142;5.364;2023-02-28T04:58:38;4.90;;;2.63;;
69594;SDS011;56800;52.142;5.364;2023-02-28T05:01:15;4.68;;;2.10;;
69594;SDS011;56800;52.142;5.364;2023-02-28T05:03:46;5.60;;;2.30;;
69594;SDS011;56800;52.142;5.364;2023-02-28T05:06:12;4.30;;;1.95;;
69594;SDS011;56800;52.142;5.364;2023-02-28T05:08:40;5.35;;;2.08;;
69594;SDS011;56800;52.142;5.364;2023-02-28T05:11:12;4.53;;;2.30;;
69594;SDS011;56800;52.142;5.364;2023-02-28T05:13:45;4.13;;;2.22;;
69594;SDS011;56800;52.142;5.364;2023-02-28T05:16:12;6.45;;;2.20;;
69594;SDS011;56800;52.142;5.364;2023-02-28T05:18:39;4.55;;;2.20;;
69594;SDS011;56800;52.142;5.364;2023-02-28T05:21:06;5.10;;;2.30;;
69594;SDS011;56800;52.142;5.364;2023-02-28T05:23:50;6.07;;;3.17;;
69594;SDS011;56800;52.142;5.364;2023-02-28T05:26:18;4.78;;;2.55;;
69594;SDS011;56800;52.142;5.364;2023-02-28T05:28:46;5.38;;;2.70;;
69594;SDS011;56800;52.142;5.364;2023-02-28T05:31:12;7.75;;;2.67;;
69594;SDS011;56800;52.142;5.364;2023-02-28T05:33:39;5.72;;;2.50;;
69594;SDS011;56800;52.142;5.364;2023-02-28T05:36:07;5.13;;;2.57;;
69594;SDS011;56800;52.142;5.364;2023-02-28T05:38:34;6.00;;;2.50;;
69594;SDS011;56800;52.142;5.364;2023-02-28T05:41:10;5.20;;;2.42;;
69594;SDS011;56800;52.142;5.364;2023-02-28T05:43:37;6.45;;;2.83;;
69594;SDS011;56800;52.142;5.364;2023-02-28T05:46:07;8.45;;;2.67;;
69594;SDS011;56800;52.142;5.364;2023-02-28T05:48:37;4.10;;;2.20;;
69594;SDS011;56800;52.142;5.364;2023-02-28T05:51:05;6.38;;;2.83;;
69594;SDS011;56800;52.142;5.364;2023-02-28T05:53:33;7.10;;;2.95;;
69594;SDS011;56800;52.142;5.364;2023-02-28T05:56:00;4.75;;;2.97;;
69594;SDS011;56800;52.142;5.364;2023-02-28T05:58:27;4.03;;;2.63;;
69594;SDS011;56800;52.142;5.364;2023-02-28T06:00:57;7.53;;;3.27;;
69594;SDS011;56800;52.142;5.364;2023-02-28T06:03:25;5.95;;;3.00;;
69594;SDS011;56800;52.142;5.364;2023-02-28T06:05:52;6.65;;;3.13;;
69594;SDS011;56800;52.142;5.364;2023-02-28T06:08:19;6.05;;;3.00;;
69594;SDS011;56800;52.142;5.364;2023-02-28T06:10:46;6.63;;;2.60;;
69594;SDS011;56800;52.142;5.364;2023-02-28T06:13:13;6.50;;;3.30;;
69594;SDS011;56800;52.142;5.364;2023-02-28T06:15:40;7.93;;;3.55;;
69594;SDS011;56800;52.142;5.364;2023-02-28T06:18:07;7.38;;;3.10;;
69594;SDS011;56800;52.142;5.364;2023-02-28T06:20:34;5.22;;;2.85;;
69594;SDS011;56800;52.142;5.364;2023-02-28T06:23:02;8.07;;;3.20;;
69594;SDS011;56800;52.142;5.364;2023-02-28T06:25:29;6.07;;;3.00;;
69594;SDS011;56800;52.142;5.364;2023-02-28T06:27:56;6.43;;;4.03;;
69594;SDS011;56800;52.142;5.364;2023-02-28T06:30:22;7.38;;;3.30;;
69594;SDS011;56800;52.142;5.364;2023-02-28T06:32:53;7.10;;;3.22;;
69594;SDS011;56800;52.142;5.364;2023-02-28T06:35:20;6.43;;;3.63;;
69594;SDS011;56800;52.142;5.364;2023-02-28T06:37:47;8.03;;;3.63;;
69594;SDS011;56800;52.142;5.364;2023-02-28T06:40:14;6.35;;;3.90;;
69594;SDS011;56800;52.142;5.364;2023-02-28T06:42:41;6.43;;;3.47;;
69594;SDS011;56800;52.142;5.364;2023-02-28T06:45:08;7.13;;;2.80;;
69594;SDS011;56800;52.142;5.364;2023-02-28T06:47:36;6.15;;;3.30;;
69594;SDS011;56800;52.142;5.364;2023-02-28T06:50:05;8.77;;;3.60;;
69594;SDS011;56800;52.142;5.364;2023-02-28T06:52:32;5.53;;;2.78;;
69594;SDS011;56800;52.142;5.364;2023-02-28T06:55:02;10.05;;;3.80;;
69594;SDS011;56800;52.142;5.364;2023-02-28T06:57:33;8.93;;;3.88;;
69594;SDS011;56800;52.142;5.364;2023-02-28T07:00:03;7.20;;;3.15;;
69594;SDS011;56800;52.142;5.364;2023-02-28T07:02:34;7.87;;;3.37;;
69594;SDS011;56800;52.142;5.364;2023-02-28T07:05:04;7.05;;;3.40;;
69594;SDS011;56800;52.142;5.364;2023-02-28T07:07:31;8.93;;;3.88;;
69594;SDS011;56800;52.142;5.364;2023-02-28T07:09:59;10.95;;;3.42;;
69594;SDS011;56800;52.142;5.364;2023-02-28T07:12:26;5.53;;;3.13;;
69594;SDS011;56800;52.142;5.364;2023-02-28T07:14:52;5.87;;;3.10;;
69594;SDS011;56800;52.142;5.364;2023-02-28T07:17:20;5.65;;;3.30;;
69594;SDS011;56800;52.142;5.364;2023-02-28T07:19:47;5.35;;;3.30;;
69594;SDS011;56800;52.142;5.364;2023-02-28T07:22:13;6.43;;;3.08;;
69594;SDS011;56800;52.142;5.364;2023-02-28T07:24:41;5.00;;;3.38;;
69594;SDS011;56800;52.142;5.364;2023-02-28T07:27:08;7.83;;;3.40;;
69594;SDS011;56800;52.142;5.364;2023-02-28T07:29:34;6.20;;;3.83;;
69594;SDS011;56800;52.142;5.364;2023-02-28T07:32:01;6.05;;;3.60;;
69594;SDS011;56800;52.142;5.364;2023-02-28T07:34:28;13.43;;;3.45;;
69594;SDS011;56800;52.142;5.364;2023-02-28T07:36:55;8.00;;;3.90;;
69594;SDS011;56800;52.142;5.364;2023-02-28T07:39:22;7.53;;;3.90;;
69594;SDS011;56800;52.142;5.364;2023-02-28T07:41:49;12.35;;;4.00;;
69594;SDS011;56800;52.142;5.364;2023-02-28T07:44:15;7.53;;;3.85;;
69594;SDS011;56800;52.142;5.364;2023-02-28T07:46:42;6.22;;;3.70;;
69594;SDS011;56800;52.142;5.364;2023-02-28T07:49:09;8.02;;;4.03;;
69594;SDS011;56800;52.142;5.364;2023-02-28T07:51:35;7.17;;;3.70;;
69594;SDS011;56800;52.142;5.364;2023-02-28T07:54:02;11.88;;;4.40;;
69594;SDS011;56800;52.142;5.364;2023-02-28T07:56:29;10.05;;;3.85;;
69594;SDS011;56800;52.142;5.364;2023-02-28T07:58:57;9.90;;;4.53;;
69594;SDS011;56800;52.142;5.364;2023-02-28T08:01:24;8.80;;;4.07;;
69594;SDS011;56800;52.142;5.364;2023-02-28T08:03:50;8.50;;;4.10;;
69594;SDS011;56800;52.142;5.364;2023-02-28T08:06:18;10.75;;;3.95;;
69594;SDS011;56800;52.142;5.364;2023-02-28T08:08:47;6.85;;;4.03;;
69594;SDS011;56800;52.142;5.364;2023-02-28T08:11:15;9.93;;;4.18;;
69594;SDS011;56800;52.142;5.364;2023-02-28T08:13:42;6.95;;;3.70;;
69594;SDS011;56800;52.142;5.364;2023-02-28T08:16:10;6.70;;;3.80;;
69594;SDS011;56800;52.142;5.364;2023-02-28T08:18:41;5.93;;;3.85;;
69594;SDS011;56800;52.142;5.364;2023-02-28T08:21:08;7.10;;;3.75;;
69594;SDS011;56800;52.142;5.364;2023-02-28T08:23:36;10.50;;;4.05;;
69594;SDS011;56800;52.142;5.364;2023-02-28T08:26:03;7.45;;;3.83;;
69594;SDS011;56800;52.142;5.364;2023-02-28T08:28:30;6.23;;;3.93;;
69594;SDS011;56800;52.142;5.364;2023-02-28T08:30:57;6.78;;;3.85;;
69594;SDS011;56800;52.142;5.364;2023-02-28T08:33:24;6.60;;;3.60;;
69594;SDS011;56800;52.142;5.364;2023-02-28T08:35:56;9.27;;;3.58;;
69594;SDS011;56800;52.142;5.364;2023-02-28T08:38:23;7.68;;;3.55;;
69594;SDS011;56800;52.142;5.364;2023-02-28T08:40:56;7.10;;;3.13;;
69594;SDS011;56800;52.142;5.364;2023-02-28T08:43:24;7.15;;;3.42;;
69594;SDS011;56800;52.142;5.364;2023-02-28T08:45:54;6.43;;;3.03;;
69594;SDS011;56800;52.142;5.364;2023-02-28T08:48:25;6.38;;;3.30;;
69594;SDS011;56800;52.142;5.364;2023-02-28T08:51:00;5.18;;;2.92;;
69594;SDS011;56800;52.142;5.364;2023-02-28T08:53:33;5.20;;;2.70;;
69594;SDS011;56800;52.142;5.364;2023-02-28T08:56:05;3.67;;;2.58;;
69594;SDS011;56800;52.142;5.364;2023-02-28T08:58:34;5.32;;;3.35;;
69594;SDS011;56800;52.142;5.364;2023-02-28T09:01:07;8.80;;;3.03;;
69594;SDS011;56800;52.142;5.364;2023-02-28T09:03:40;5.97;;;2.92;;
69594;SDS011;56800;52.142;5.364;2023-02-28T09:06:11;4.73;;;2.60;;
69594;SDS011;56800;52.142;5.364;2023-02-28T09:08:39;6.35;;;3.35;;
69594;SDS011;56800;52.142;5.364;2023-02-28T09:11:07;5.03;;;2.83;;
69594;SDS011;56800;52.142;5.364;2023-02-28T09:13:34;5.50;;;2.50;;
69594;SDS011;56800;52.142;5.364;2023-02-28T09:16:02;4.53;;;2.92;;
69594;SDS011;56800;52.142;5.364;2023-02-28T09:18:33;6.13;;;2.73;;
69594;SDS011;56800;52.142;5.364;2023-02-28T09:21:05;6.55;;;3.00;;
69594;SDS011;56800;52.142;5.364;2023-02-28T09:23:44;5.57;;;2.58;;
69594;SDS011;56800;52.142;5.364;2023-02-28T09:26:17;5.95;;;2.53;;
69594;SDS011;56800;52.142;5.364;2023-02-28T09:29:04;4.75;;;2.30;;
69594;SDS011;56800;52.142;5.364;2023-02-28T09:31:44;5.10;;;2.30;;
69594;SDS011;56800;52.142;5.364;2023-02-28T09:34:12;4.03;;;2.08;;
69594;SDS011;56800;52.142;5.364;2023-02-28T09:36:39;3.90;;;2.25;;
69594;SDS011;56800;52.142;5.364;2023-02-28T09:39:11;3.45;;;2.05;;
69594;SDS011;56800;52.142;5.364;2023-02-28T09:41:50;3.95;;;1.90;;
69594;SDS011;56800;52.142;5.364;2023-02-28T09:44:28;2.20;;;1.70;;
69594;SDS011;56800;52.142;5.364;2023-02-28T09:47:13;3.28;;;1.92;;
69594;SDS011;56800;52.142;5.364;2023-02-28T09:49:44;5.72;;;1.50;;
69594;SDS011;56800;52.142;5.364;2023-02-28T09:52:20;3.10;;;1.70;;
69594;SDS011;56800;52.142;5.364;2023-02-28T09:54:51;4.38;;;1.80;;
69594;SDS011;56800;52.142;5.364;2023-02-28T09:57:19;2.77;;;1.73;;
69594;SDS011;56800;52.142;5.364;2023-02-28T10:00:15;4.25;;;1.60;;
69594;SDS011;56800;52.142;5.364;2023-02-28T10:02:48;2.80;;;1.60;;
69594;SDS011;56800;52.142;5.364;2023-02-28T10:06:02;3.15;;;1.70;;
69594;SDS011;56800;52.142;5.364;2023-02-28T10:08:45;3.10;;;1.50;;
69594;SDS011;56800;52.142;5.364;2023-02-28T10:11:18;2.63;;;1.47;;
69594;SDS011;56800;52.142;5.364;2023-02-28T10:18:59;3.95;;;1.48;;
69594;SDS011;56800;52.142;5.364;2023-02-28T10:21:59;5.20;;;1.65;;
69594;SDS011;56800;52.142;5.364;2023-02-28T10:27:24;2.42;;;1.70;;
69594;SDS011;56800;52.142;5.364;2023-02-28T10:29:56;3.17;;;1.30;;
69594;SDS011;56800;52.142;5.364;2023-02-28T10:32:26;3.40;;;1.50;;
69594;SDS011;56800;52.142;5.364;2023-02-28T10:35:10;3.20;;;1.88;;
69594;SDS011;56800;52.142;5.364;2023-02-28T10:37:46;3.43;;;1.60;;
69594;SDS011;56800;52.142;5.364;2023-02-28T10:45:53;2.88;;;1.50;;
69594;SDS011;56800;52.142;5.364;2023-02-28T10:53:28;3.58;;;1.60;;
69594;SDS011;56800;52.142;5.364;2023-02-28T10:56:21;3.42;;;1.40;;
69594;SDS011;56800;52.142;5.364;2023-02-28T10:58:57;3.50;;;1.30;;
69594;SDS011;56800;52.142;5.364;2023-02-28T11:01:49;3.15;;;1.40;;
69594;SDS011;56800;52.142;5.364;2023-02-28T11:06:56;3.13;;;1.83;;
69594;SDS011;56800;52.142;5.364;2023-02-28T11:09:26;4.05;;;1.63;;
69594;SDS011;56800;52.142;5.364;2023-02-28T11:11:59;3.42;;;2.00;;
69594;SDS011;56800;52.142;5.364;2023-02-28T11:14:29;4.75;;;1.70;;
69594;SDS011;56800;52.142;5.364;2023-02-28T11:17:11;2.73;;;1.60;;
69594;SDS011;56800;52.142;5.364;2023-02-28T11:19:44;2.92;;;2.00;;
69594;SDS011;56800;52.142;5.364;2023-02-28T11:22:23;2.55;;;1.60;;
69594;SDS011;56800;52.142;5.364;2023-02-28T11:24:55;3.55;;;2.00;;
69594;SDS011;56800;52.142;5.364;2023-02-28T11:29:57;2.33;;;1.60;;
69594;SDS011;56800;52.142;5.364;2023-02-28T11:32:26;3.63;;;1.83;;
69594;SDS011;56800;52.142;5.364;2023-02-28T11:35:00;3.53;;;1.70;;
69594;SDS011;56800;52.142;5.364;2023-02-28T11:37:36;3.45;;;1.80;;
69594;SDS011;56800;52.142;5.364;2023-02-28T11:40:14;2.42;;;1.77;;
69594;SDS011;56800;52.142;5.364;2023-02-28T11:45:15;2.33;;;1.70;;
69594;SDS011;56800;52.142;5.364;2023-02-28T11:53:00;3.42;;;1.85;;
69594;SDS011;56800;52.142;5.364;2023-02-28T11:55:37;3.13;;;1.63;;
69594;SDS011;56800;52.142;5.364;2023-02-28T11:58:17;2.95;;;1.95;;
69594;SDS011;56800;52.142;5.364;2023-02-28T12:06:36;2.90;;;1.70;;
69594;SDS011;56800;52.142;5.364;2023-02-28T12:09:38;3.37;;;1.83;;
69594;SDS011;56800;52.142;5.364;2023-02-28T12:12:36;2.42;;;1.27;;
69594;SDS011;56800;52.142;5.364;2023-02-28T12:21:03;3.67;;;1.70;;
69594;SDS011;56800;52.142;5.364;2023-02-28T12:23:58;2.70;;;1.83;;
69594;SDS011;56800;52.142;5.364;2023-02-28T12:26:32;2.88;;;1.88;;
69594;SDS011;56800;52.142;5.364;2023-02-28T12:31:56;4.35;;;1.83;;
69594;SDS011;56800;52.142;5.364;2023-02-28T12:34:33;4.95;;;1.70;;
69594;SDS011;56800;52.142;5.364;2023-02-28T12:37:06;2.40;;;1.50;;
69594;SDS011;56800;52.142;5.364;2023-02-28T12:39:37;3.67;;;1.65;;
69594;SDS011;56800;52.142;5.364;2023-02-28T12:42:22;3.08;;;1.75;;
69594;SDS011;56800;52.142;5.364;2023-02-28T12:45:00;3.35;;;1.58;;
69594;SDS011;56800;52.142;5.364;2023-02-28T12:47:31;3.63;;;1.60;;
69594;SDS011;56800;52.142;5.364;2023-02-28T12:50:07;2.53;;;1.70;;
69594;SDS011;56800;52.142;5.364;2023-02-28T12:58:19;2.85;;;1.90;;
69594;SDS011;56800;52.142;5.364;2023-02-28T13:06:51;4.05;;;1.98;;
69594;SDS011;56800;52.142;5.364;2023-02-28T13:09:05;3.17;;;1.88;;
69594;SDS011;56800;52.142;5.364;2023-02-28T13:11:40;3.17;;;1.77;;
69594;SDS011;56800;52.142;5.364;2023-02-28T13:14:26;4.90;;;2.00;;
69594;SDS011;56800;52.142;5.364;2023-02-28T13:16:57;3.70;;;2.03;;
69594;SDS011;56800;52.142;5.364;2023-02-28T13:19:36;2.88;;;1.73;;
69594;SDS011;56800;52.142;5.364;2023-02-28T13:22:15;3.20;;;2.10;;
69594;SDS011;56800;52.142;5.364;2023-02-28T13:24:45;3.53;;;1.90;;
69594;SDS011;56800;52.142;5.364;2023-02-28T13:27:37;3.55;;;1.90;;
69594;SDS011;56800;52.142;5.364;2023-02-28T13:34:04;3.72;;;1.92;;
69594;SDS011;56800;52.142;5.364;2023-02-28T13:46:34;4.63;;;2.20;;
69594;SDS011;56800;52.142;5.364;2023-02-28T13:52:30;3.15;;;1.92;;
69594;SDS011;56800;52.142;5.364;2023-02-28T14:06:56;4.20;;;2.40;;
69594;SDS011;56800;52.142;5.364;2023-02-28T14:12:02;4.53;;;2.23;;
69594;SDS011;56800;52.142;5.364;2023-02-28T14:15:03;3.47;;;1.98;;
69594;SDS011;56800;52.142;5.364;2023-02-28T14:17:51;3.58;;;1.45;;
69594;SDS011;56800;52.142;5.364;2023-02-28T14:20:20;4.53;;;1.98;;
69594;SDS011;56800;52.142;5.364;2023-02-28T14:22:52;4.47;;;2.05;;
69594;SDS011;56800;52.142;5.364;2023-02-28T14:25:40;3.67;;;2.00;;
69594;SDS011;56800;52.142;5.364;2023-02-28T14:31:18;3.90;;;1.70;;
69594;SDS011;56800;52.142;5.364;2023-02-28T14:36:36;3.38;;;1.88;;
69594;SDS011;56800;52.142;5.364;2023-02-28T14:39:07;2.40;;;1.60;;
69594;SDS011;56800;52.142;5.364;2023-02-28T14:41:38;4.30;;;1.90;;
69594;SDS011;56800;52.142;5.364;2023-02-28T14:44:14;3.33;;;2.00;;
69594;SDS011;56800;52.142;5.364;2023-02-28T14:46:43;3.00;;;1.80;;
69594;SDS011;56800;52.142;5.364;2023-02-28T14:54:55;2.95;;;1.98;;
69594;SDS011;56800;52.142;5.364;2023-02-28T14:57:27;3.55;;;2.30;;
69594;SDS011;56800;52.142;5.364;2023-02-28T15:00:00;4.25;;;1.90;;
69594;SDS011;56800;52.142;5.364;2023-02-28T15:02:33;5.32;;;1.83;;
69594;SDS011;56800;52.142;5.364;2023-02-28T15:05:10;4.00;;;2.07;;
69594;SDS011;56800;52.142;5.364;2023-02-28T15:07:48;4.57;;;2.00;;
69594;SDS011;56800;52.142;5.364;2023-02-28T15:10:26;4.13;;;1.95;;
69594;SDS011;56800;52.142;5.364;2023-02-28T15:12:58;3.80;;;1.98;;
69594;SDS011;56800;52.142;5.364;2023-02-28T15:21:03;3.80;;;2.10;;
69594;SDS011;56800;52.142;5.364;2023-02-28T15:23:35;3.25;;;1.85;;
69594;SDS011;56800;52.142;5.364;2023-02-28T15:26:03;3.92;;;1.73;;
69594;SDS011;56800;52.142;5.364;2023-02-28T15:28:30;3.35;;;1.70;;
69594;SDS011;56800;52.142;5.364;2023-02-28T15:31:02;4.53;;;1.80;;
69594;SDS011;56800;52.142;5.364;2023-02-28T15:33:51;3.25;;;2.15;;
69594;SDS011;56800;52.142;5.364;2023-02-28T15:36:24;3.30;;;1.80;;
69594;SDS011;56800;52.142;5.364;2023-02-28T15:38:55;3.67;;;1.58;;
69594;SDS011;56800;52.142;5.364;2023-02-28T15:41:36;3.50;;;1.67;;
69594;SDS011;56800;52.142;5.364;2023-02-28T15:44:13;3.60;;;1.90;;
69594;SDS011;56800;52.142;5.364;2023-02-28T15:47:00;3.10;;;2.13;;
69594;SDS011;56800;52.142;5.364;2023-02-28T15:49:38;3.17;;;1.90;;
69594;SDS011;56800;52.142;5.364;2023-02-28T15:52:21;3.20;;;1.55;;
69594;SDS011;56800;52.142;5.364;2023-02-28T15:54:53;3.60;;;2.00;;
69594;SDS011;56800;52.142;5.364;2023-02-28T15:57:21;4.20;;;1.83;;
69594;SDS011;56800;52.142;5.364;2023-02-28T15:59:54;2.42;;;1.58;;
69594;SDS011;56800;52.142;5.364;2023-02-28T16:02:33;3.83;;;1.83;;
69594;SDS011;56800;52.142;5.364;2023-02-28T16:07:34;3.45;;;1.40;;
69594;SDS011;56800;52.142;5.364;2023-02-28T16:10:02;2.70;;;1.60;;
69594;SDS011;56800;52.142;5.364;2023-02-28T16:12:31;2.55;;;1.52;;
69594;SDS011;56800;52.142;5.364;2023-02-28T16:15:02;2.60;;;1.60;;
69594;SDS011;56800;52.142;5.364;2023-02-28T16:17:33;4.45;;;1.92;;
69594;SDS011;56800;52.142;5.364;2023-02-28T16:20:13;4.80;;;1.92;;
69594;SDS011;56800;52.142;5.364;2023-02-28T16:22:41;3.42;;;2.10;;
69594;SDS011;56800;52.142;5.364;2023-02-28T16:25:12;3.20;;;2.07;;
69594;SDS011;56800;52.142;5.364;2023-02-28T16:27:40;3.70;;;2.08;;
69594;SDS011;56800;52.142;5.364;2023-02-28T16:30:29;5.55;;;2.03;;
69594;SDS011;56800;52.142;5.364;2023-02-28T16:32:58;2.88;;;1.80;;
69594;SDS011;56800;52.142;5.364;2023-02-28T16:35:25;4.53;;;2.10;;
69594;SDS011;56800;52.142;5.364;2023-02-28T16:37:52;4.90;;;2.10;;
69594;SDS011;56800;52.142;5.364;2023-02-28T16:40:23;4.03;;;2.00;;
69594;SDS011;56800;52.142;5.364;2023-02-28T16:42:52;3.45;;;1.80;;
69594;SDS011;56800;52.142;5.364;2023-02-28T16:45:23;3.17;;;1.83;;
69594;SDS011;56800;52.142;5.364;2023-02-28T16:47:54;3.00;;;1.88;;
69594;SDS011;56800;52.142;5.364;2023-02-28T16:50:26;4.03;;;2.07;;
69594;SDS011;56800;52.142;5.364;2023-02-28T16:52:54;3.80;;;2.10;;
69594;SDS011;56800;52.142;5.364;2023-02-28T16:55:22;2.72;;;1.73;;
69594;SDS011;56800;52.142;5.364;2023-02-28T16:57:51;4.28;;;2.00;;
69594;SDS011;56800;52.142;5.364;2023-02-28T17:00:20;7.63;;;2.33;;
69594;SDS011;56800;52.142;5.364;2023-02-28T17:02:48;4.30;;;2.10;;
69594;SDS011;56800;52.142;5.364;2023-02-28T17:05:15;6.05;;;2.15;;
69594;SDS011;56800;52.142;5.364;2023-02-28T17:07:43;2.95;;;1.77;;
69594;SDS011;56800;52.142;5.364;2023-02-28T17:10:20;3.20;;;2.30;;
69594;SDS011;56800;52.142;5.364;2023-02-28T17:12:48;5.45;;;2.03;;
69594;SDS011;56800;52.142;5.364;2023-02-28T17:15:17;3.97;;;1.90;;
69594;SDS011;56800;52.142;5.364;2023-02-28T17:17:45;4.28;;;2.15;;
69594;SDS011;56800;52.142;5.364;2023-02-28T17:20:14;3.63;;;2.50;;
69594;SDS011;56800;52.142;5.364;2023-02-28T17:22:51;7.35;;;2.55;;
69594;SDS011;56800;52.142;5.364;2023-02-28T17:25:19;4.57;;;2.03;;
69594;SDS011;56800;52.142;5.364;2023-02-28T17:27:46;5.17;;;2.53;;